Time;durP1;ratioP1;P1;durP2;ratioP2;P2;SDS_P1;SDS_P2;PMS_P1;PMS_P2;Temp;Humidity;BMP_temperature;BMP_pressure;BME280_temperature;BME280_humidity;BME280_pressure;Samples;Min_cycle;Max_cycle;Signal;HPM_P1;HPM_P2
2023/07/22 00:00:45;;;;;;;11.18;4.47;;;;;;;21.45;64.91;98710.72;4390813;32;34725;-82
2023/07/22 00:03:14;;;;;;;9.80;4.65;;;;;;;21.41;64.14;98709.97;4390714;32;34243;-83
2023/07/22 00:05:43;;;;;;;8.93;4.90;;;;;;;21.38;63.72;98712.72;4390567;32;34988;-83
2023/07/22 00:08:11;;;;;;;7.93;4.60;;;;;;;21.32;63.44;98707.63;4377250;32;34773;-83
2023/07/22 00:10:42;;;;;;;8.80;4.80;;;;;;;21.21;64.04;98717.72;4389647;32;33242;-82
2023/07/22 00:13:10;;;;;;;7.70;4.50;;;;;;;21.12;64.69;98724.22;4377225;32;33812;-82
2023/07/22 00:15:37;;;;;;;9.43;5.15;;;;;;;21.16;64.77;98731.09;4376583;32;33458;-82
2023/07/22 00:18:05;;;;;;;10.20;4.95;;;;;;;21.16;65.08;98733.72;4390363;32;33653;-83
2023/07/22 00:20:33;;;;;;;8.52;5.35;;;;;;;21.14;64.98;98739.06;4390526;32;33359;-82
2023/07/22 00:23:00;;;;;;;7.85;4.75;;;;;;;21.10;65.34;98744.50;4390405;32;34160;-82
2023/07/22 00:25:28;;;;;;;9.55;5.20;;;;;;;21.16;65.38;98727.59;4389962;32;34138;-82
2023/07/22 00:27:57;;;;;;;8.70;5.43;;;;;;;20.95;65.90;98726.59;4390506;32;34250;-82
2023/07/22 00:30:25;;;;;;;8.60;5.05;;;;;;;21.08;65.41;98725.25;4376698;32;33998;-82
2023/07/22 00:32:54;;;;;;;8.30;5.05;;;;;;;21.04;65.76;98721.88;4390455;32;35086;-83
2023/07/22 00:35:21;;;;;;;9.70;5.25;;;;;;;21.07;65.27;98716.50;4388973;32;34824;-82
2023/07/22 00:37:49;;;;;;;8.75;4.70;;;;;;;21.20;64.41;98711.59;4390197;32;34388;-83
2023/07/22 00:40:17;;;;;;;6.60;4.40;;;;;;;21.02;64.64;98718.41;4390049;32;33608;-83
2023/07/22 00:42:45;;;;;;;7.97;4.70;;;;;;;21.01;64.95;98713.22;4389082;32;34166;-82
2023/07/22 00:45:12;;;;;;;7.62;4.70;;;;;;;21.07;65.49;98707.72;4390075;32;33986;-83
2023/07/22 00:47:40;;;;;;;8.20;4.85;;;;;;;21.05;65.72;98715.66;4376684;32;33650;-83
2023/07/22 00:50:08;;;;;;;6.93;4.15;;;;;;;21.09;65.27;98719.91;4390385;32;33668;-82
2023/07/22 00:52:36;;;;;;;9.68;4.55;;;;;;;21.13;64.46;98734.69;4389701;32;34164;-83
2023/07/22 00:55:05;;;;;;;9.38;5.05;;;;;;;21.01;64.39;98737.78;4388897;32;33431;-84
2023/07/22 00:57:33;;;;;;;7.43;4.22;;;;;;;21.35;63.52;98747.97;4388938;32;33916;-83
2023/07/22 01:00:19;;;;;;;8.48;4.90;;;;;;;21.38;63.31;98753.13;4376212;32;32622;-83
2023/07/22 01:02:47;;;;;;;14.40;5.28;;;;;;;21.09;64.77;98766.50;4370439;32;194340;-83
2023/07/22 01:05:14;;;;;;;8.60;4.97;;;;;;;21.03;64.85;98759.69;4373198;32;33596;-83
2023/07/22 01:07:42;;;;;;;10.23;5.15;;;;;;;21.08;65.01;98780.59;4375063;32;33195;-82
2023/07/22 01:10:10;;;;;;;11.23;5.28;;;;;;;20.99;65.43;98770.41;4374637;32;33944;-83
2023/07/22 01:12:38;;;;;;;8.48;5.35;;;;;;;21.11;65.44;98764.69;4377962;32;34643;-83
2023/07/22 01:15:07;;;;;;;8.65;4.60;;;;;;;21.08;66.04;98759.50;4389795;32;34969;-82
2023/07/22 01:17:39;;;;;;;10.05;5.00;;;;;;;21.10;65.73;98761.19;4389582;32;33628;-83
2023/07/22 01:20:09;;;;;;;8.38;4.72;;;;;;;21.17;65.27;98769.72;4376146;32;33587;-82
2023/07/22 01:22:38;;;;;;;10.93;5.20;;;;;;;21.14;65.17;98773.34;4375885;32;34626;-83
2023/07/22 01:25:07;;;;;;;8.38;4.70;;;;;;;21.10;65.28;98784.03;4375639;32;33889;-82
2023/07/22 01:27:34;;;;;;;9.27;4.97;;;;;;;21.27;64.62;98775.53;4375967;32;33694;-83
2023/07/22 01:30:03;;;;;;;8.90;5.30;;;;;;;21.14;65.09;98777.75;4376161;32;34722;-83
2023/07/22 01:32:31;;;;;;;10.05;4.80;;;;;;;21.06;65.73;98779.78;4389674;32;33615;-83
2023/07/22 01:35:01;;;;;;;9.23;5.32;;;;;;;20.94;66.34;98773.19;4363711;32;32914;-83
2023/07/22 01:37:31;;;;;;;9.57;5.03;;;;;;;20.89;66.88;98783.88;4389418;32;34163;-83
2023/07/22 01:39:59;;;;;;;7.55;5.50;;;;;;;20.99;66.73;98791.50;4389137;32;33930;-83
2023/07/22 01:42:27;;;;;;;8.50;5.35;;;;;;;20.93;67.17;98796.97;4389440;32;34324;-82
2023/07/22 01:44:55;;;;;;;12.45;5.30;;;;;;;20.96;66.70;98794.22;4389474;32;34388;-82
2023/07/22 01:47:22;;;;;;;9.25;4.93;;;;;;;21.07;66.60;98794.69;4391334;32;34020;-82
2023/07/22 01:49:52;;;;;;;7.72;5.32;;;;;;;21.01;66.47;98802.81;4391700;32;33703;-82
2023/07/22 01:52:20;;;;;;;9.60;5.18;;;;;;;21.11;65.96;98812.97;4391589;32;33791;-82
2023/07/22 01:54:47;;;;;;;8.50;4.80;;;;;;;21.08;65.73;98812.22;4391911;32;34199;-83
2023/07/22 01:57:15;;;;;;;9.23;4.50;;;;;;;21.09;65.71;98820.06;4391055;32;33650;-82
2023/07/22 01:59:42;;;;;;;7.62;5.40;;;;;;;21.03;65.58;98824.72;4391603;32;33986;-83
2023/07/22 02:02:10;;;;;;;14.25;5.47;;;;;;;21.09;65.58;98819.22;4377603;32;34066;-83
2023/07/22 02:04:38;;;;;;;7.95;5.62;;;;;;;20.96;65.96;98813.53;4391470;32;34040;-82
2023/07/22 02:07:05;;;;;;;10.73;5.57;;;;;;;21.03;65.53;98817.66;4377586;32;33780;-82
2023/07/22 02:09:33;;;;;;;8.48;5.53;;;;;;;21.12;65.07;98827.03;4377801;32;34048;-83
2023/07/22 02:12:01;;;;;;;10.07;6.43;;;;;;;21.08;65.48;98828.91;4391469;32;34804;-82
2023/07/22 02:14:28;;;;;;;12.52;6.07;;;;;;;20.88;66.28;98834.87;4377961;32;34164;-83
2023/07/22 02:16:56;;;;;;;9.02;5.80;;;;;;;20.88;66.49;98837.50;4391394;32;34249;-82
2023/07/22 02:19:23;;;;;;;9.23;5.65;;;;;;;20.88;66.56;98832.25;4391784;32;34739;-83
2023/07/22 02:21:51;;;;;;;9.30;5.78;;;;;;;21.06;65.83;98841.28;4391599;32;34340;-83
2023/07/22 02:24:19;;;;;;;11.45;6.10;;;;;;;20.98;65.90;98842.44;4391206;32;34546;-83
2023/07/22 02:26:46;;;;;;;9.70;6.95;;;;;;;20.94;65.76;98849.59;4391369;32;34324;-82
2023/07/22 02:29:14;;;;;;;11.80;6.12;;;;;;;20.95;65.85;98847.81;4378113;32;34572;-84
2023/07/22 02:31:41;;;;;;;8.30;5.80;;;;;;;20.85;66.35;98848.16;4378106;32;34407;-83
2023/07/22 02:34:09;;;;;;;11.93;6.30;;;;;;;20.87;66.30;98835.78;4391286;32;33860;-83
2023/07/22 02:36:36;;;;;;;11.70;6.15;;;;;;;20.74;66.55;98831.84;4377800;32;33762;-83
2023/07/22 02:39:04;;;;;;;10.48;6.10;;;;;;;21.02;65.94;98838.78;4391120;32;33683;-83
2023/07/22 02:41:31;;;;;;;8.50;6.30;;;;;;;20.97;65.85;98846.88;4391218;32;34856;-82
2023/07/22 02:43:59;;;;;;;9.98;6.53;;;;;;;20.88;65.89;98848.06;4391352;32;34288;-82
2023/07/22 02:46:27;;;;;;;11.93;6.00;;;;;;;20.84;66.20;98851.72;4391189;32;33615;-82
2023/07/22 02:48:55;;;;;;;9.23;5.80;;;;;;;20.88;65.73;98852.47;4391305;32;34767;-83
2023/07/22 02:51:22;;;;;;;10.25;6.20;;;;;;;20.95;65.54;98859.25;4390472;32;34255;-83
2023/07/22 02:53:50;;;;;;;9.40;5.95;;;;;;;20.90;65.65;98856.75;4391301;32;33815;-83
2023/07/22 02:56:17;;;;;;;10.63;6.50;;;;;;;20.84;65.99;98856.13;4391387;32;33817;-83
2023/07/22 02:58:45;;;;;;;9.32;6.50;;;;;;;21.05;64.91;98857.13;4390331;32;33739;-83
2023/07/22 03:01:13;;;;;;;10.90;6.80;;;;;;;20.97;65.36;98862.69;4389692;32;33648;-83
2023/07/22 03:03:40;;;;;;;9.93;6.65;;;;;;;20.71;66.18;98863.56;4389753;32;34234;-82
2023/07/22 03:06:09;;;;;;;12.18;6.97;;;;;;;20.98;65.63;98874.06;4390630;32;34661;-83
2023/07/22 03:08:37;;;;;;;9.07;6.72;;;;;;;21.02;65.25;98873.06;4391109;32;33835;-83
2023/07/22 03:11:04;;;;;;;11.50;7.32;;;;;;;20.98;65.05;98880.19;4376821;32;33031;-83
2023/07/22 03:13:33;;;;;;;9.43;6.80;;;;;;;20.85;65.34;98871.88;4390972;32;34089;-85
2023/07/22 03:16:03;;;;;;;10.88;6.85;;;;;;;20.95;65.08;98875.06;4391292;32;33694;-83
2023/07/22 03:18:32;;;;;;;10.43;6.97;;;;;;;20.91;64.98;98870.81;4389607;32;33976;-83
2023/07/22 03:20:59;;;;;;;11.10;7.10;;;;;;;20.85;64.90;98878.91;4390626;32;34966;-83
2023/07/22 03:23:27;;;;;;;10.15;6.60;;;;;;;20.83;64.92;98875.44;4377346;32;33981;-83
2023/07/22 03:25:54;;;;;;;9.55;7.22;;;;;;;20.86;64.84;98878.84;4391226;32;33607;-82
2023/07/22 03:28:22;;;;;;;9.48;6.87;;;;;;;20.73;65.61;98874.91;4390725;32;34347;-82
2023/07/22 03:30:50;;;;;;;11.10;7.45;;;;;;;20.81;65.82;98874.66;4391277;32;34661;-83
2023/07/22 03:33:18;;;;;;;8.50;6.57;;;;;;;20.83;65.73;98878.09;4377409;32;34108;-82
2023/07/22 03:35:45;;;;;;;10.13;7.15;;;;;;;20.94;65.12;98878.59;4390800;32;34514;-83
2023/07/22 03:38:13;;;;;;;11.57;7.70;;;;;;;20.75;65.35;98873.06;4391197;32;33591;-83
2023/07/22 03:40:41;;;;;;;11.12;7.50;;;;;;;20.93;64.72;98878.66;4390966;32;34176;-83
2023/07/22 03:43:08;;;;;;;10.93;6.47;;;;;;;20.90;64.72;98883.09;4390881;32;34390;-83
2023/07/22 03:45:36;;;;;;;10.45;7.37;;;;;;;20.82;65.03;98889.53;4390995;32;34450;-83
2023/07/22 03:48:03;;;;;;;9.30;7.12;;;;;;;21.02;64.49;98891.50;4389074;32;33917;-82
2023/07/22 03:50:31;;;;;;;12.32;8.05;;;;;;;20.96;64.77;98891.72;4390237;32;34244;-82
2023/07/22 03:52:59;;;;;;;13.90;7.60;;;;;;;20.91;65.38;98894.53;4390913;32;33273;-82
2023/07/22 03:55:26;;;;;;;9.77;7.30;;;;;;;20.48;66.75;98895.03;4390599;32;34677;-82
2023/07/22 03:57:54;;;;;;;11.75;7.78;;;;;;;20.59;66.81;98892.94;4390687;32;33981;-82
2023/07/22 04:00:22;;;;;;;11.15;7.40;;;;;;;20.75;66.46;98898.56;4390389;32;34255;-82
2023/07/22 04:02:50;;;;;;;14.63;6.80;;;;;;;20.96;66.27;98895.22;4390599;32;34184;-82
2023/07/22 04:05:17;;;;;;;14.40;7.45;;;;;;;20.69;66.76;98890.88;4376813;32;34381;-82
2023/07/22 04:07:45;;;;;;;11.45;7.62;;;;;;;20.71;67.16;98897.78;4390713;32;33634;-83
2023/07/22 04:10:15;;;;;;;12.10;6.97;;;;;;;20.95;66.36;98889.97;4390074;32;34268;-82
2023/07/22 04:12:43;;;;;;;11.40;7.35;;;;;;;20.92;66.60;98890.13;4390551;32;33959;-82
2023/07/22 04:15:11;;;;;;;10.27;7.75;;;;;;;20.81;67.39;98888.69;4389939;32;33827;-84
2023/07/22 04:17:39;;;;;;;9.65;7.12;;;;;;;20.67;68.41;98882.16;4389776;32;33638;-82
2023/07/22 04:20:08;;;;;;;10.77;7.25;;;;;;;20.65;68.17;98887.47;4389292;32;34047;-83
2023/07/22 04:22:36;;;;;;;11.60;7.85;;;;;;;20.73;67.86;98880.19;4390560;32;34162;-82
2023/07/22 04:25:04;;;;;;;10.40;7.80;;;;;;;20.70;68.51;98885.53;4390607;32;33634;-83
2023/07/22 04:27:32;;;;;;;10.85;7.28;;;;;;;20.96;68.22;98873.28;4377268;32;33685;-83
2023/07/22 04:30:00;;;;;;;9.68;7.12;;;;;;;20.98;68.25;98877.56;4390290;32;34167;-83
2023/07/22 04:32:30;;;;;;;11.80;7.00;;;;;;;21.44;66.32;98891.84;4390233;32;34917;-83
2023/07/22 04:34:58;;;;;;;9.95;6.80;;;;;;;21.67;65.27;98890.13;4390620;32;33385;-82
2023/07/22 04:37:25;;;;;;;8.07;6.45;;;;;;;22.38;63.33;98877.75;4390753;32;33954;-83
2023/07/22 04:39:54;;;;;;;9.45;6.78;;;;;;;22.01;64.39;98884.44;4390407;32;34222;-82
2023/07/22 04:42:21;;;;;;;9.23;6.05;;;;;;;22.37;63.58;98881.31;4376544;32;32723;-84
2023/07/22 04:44:49;;;;;;;13.60;6.90;;;;;;;22.76;62.81;98890.25;4376629;32;33210;-83
2023/07/22 04:47:16;;;;;;;10.80;6.03;;;;;;;22.72;63.33;98886.03;4389993;32;33838;-83
2023/07/22 04:49:44;;;;;;;12.68;6.87;;;;;;;23.11;60.63;98890.63;4390214;32;34831;-83
2023/07/22 04:52:11;;;;;;;9.13;6.12;;;;;;;22.95;60.97;98889.53;4390199;32;34910;-83
2023/07/22 04:54:39;;;;;;;10.50;6.30;;;;;;;23.14;60.29;98894.91;4388840;32;33847;-84
2023/07/22 04:57:07;;;;;;;12.90;6.60;;;;;;;23.28;60.80;98898.69;4375770;32;34185;-86
2023/07/22 04:59:34;;;;;;;12.60;6.80;;;;;;;22.42;62.28;98896.06;4376315;32;34371;-83
2023/07/22 05:02:02;;;;;;;9.52;6.53;;;;;;;22.51;62.83;98900.12;4389631;32;34216;-83
2023/07/22 05:04:29;;;;;;;9.50;6.53;;;;;;;22.31;63.63;98903.53;4390271;32;33006;-83
2023/07/22 05:06:57;;;;;;;9.13;6.47;;;;;;;22.82;61.76;98913.81;4389889;32;34589;-84
2023/07/22 05:09:25;;;;;;;11.23;6.85;;;;;;;23.18;61.00;98912.34;4375822;32;34293;-83
2023/07/22 05:11:52;;;;;;;9.98;6.62;;;;;;;22.75;61.31;98908.84;4389881;32;34006;-84
2023/07/22 05:14:21;;;;;;;11.43;6.80;;;;;;;23.28;60.58;98903.97;4389793;32;34410;-84
2023/07/22 05:16:49;;;;;;;9.80;6.57;;;;;;;23.13;60.40;98907.28;4374614;32;33762;-88
2023/07/22 05:19:16;;;;;;;10.00;6.32;;;;;;;23.19;60.67;98914.09;4383391;32;34163;-84
2023/07/22 05:21:44;;;;;;;9.55;6.70;;;;;;;22.76;62.61;98915.84;4390833;32;34903;-85
2023/07/22 05:24:12;;;;;;;9.95;6.40;;;;;;;22.88;62.10;98909.19;4391782;32;33600;-84
2023/07/22 05:26:39;;;;;;;11.00;6.45;;;;;;;23.30;61.20;98906.56;4378048;32;33474;-84
2023/07/22 05:29:14;;;;;;;9.63;6.62;;;;;;;23.29;60.84;98921.56;4378728;32;34157;-85
2023/07/22 05:32:00;;;;;;;;;;;;;;;22.57;62.72;98919.22;4391941;32;34823;-87
2023/07/22 05:34:28;;;;;;;10.35;6.80;;;;;;;21.98;64.94;98919.75;4391874;32;33367;-83
2023/07/22 05:36:55;;;;;;;10.23;7.12;;;;;;;22.76;62.40;98921.97;4391783;32;33752;-83
2023/07/22 05:39:23;;;;;;;10.38;6.47;;;;;;;22.64;63.04;98929.56;4391680;32;34008;-84
2023/07/22 05:41:51;;;;;;;11.15;6.55;;;;;;;22.71;63.53;98931.88;4392056;32;34287;-84
2023/07/22 05:44:18;;;;;;;11.23;6.20;;;;;;;22.74;62.89;98923.84;4365249;32;33731;-84
2023/07/22 05:46:45;;;;;;;12.48;7.07;;;;;;;23.14;61.23;98931.94;4391669;32;34415;-84
2023/07/22 05:49:13;;;;;;;10.20;6.37;;;;;;;22.96;61.66;98933.59;4391646;32;34103;-84
2023/07/22 05:51:41;;;;;;;12.98;6.28;;;;;;;23.29;60.14;98933.91;4391599;32;35571;-84
2023/07/22 05:54:08;;;;;;;8.35;5.75;;;;;;;;;;4390481;32;33985;-85
2023/07/22 05:56:36;;;;;;;10.90;5.62;;;;;;;23.81;59.85;98941.41;4391286;32;33386;-84
2023/07/22 05:59:04;;;;;;;8.77;5.40;;;;;;;23.68;58.89;98949.91;4391284;32;33939;-84
2023/07/22 06:01:31;;;;;;;10.13;5.95;;;;;;;23.62;58.99;98955.41;4378105;32;34310;-83
2023/07/22 06:04:03;;;;;;;7.72;5.28;;;;;;;23.50;59.26;98955.97;4391260;32;33890;-87
2023/07/22 06:06:31;;;;;;;9.20;5.45;;;;;;;23.09;60.02;98952.44;4390780;32;34780;-83
2023/07/22 06:08:59;;;;;;;10.07;5.22;;;;;;;23.15;60.88;98954.81;4391441;32;34187;-83
2023/07/22 06:11:27;;;;;;;8.90;5.00;;;;;;;23.06;60.06;98945.47;4391463;32;35066;-83
2023/07/22 06:13:54;;;;;;;10.00;5.00;;;;;;;23.27;60.76;98949.87;4391331;32;33346;-83
2023/07/22 06:16:22;;;;;;;8.90;5.70;;;;;;;23.17;60.16;98945.03;4391467;32;34440;-84
2023/07/22 06:18:49;;;;;;;7.10;4.85;;;;;;;23.43;60.45;98944.78;4390367;32;35643;-83
2023/07/22 06:21:17;;;;;;;10.18;5.50;;;;;;;22.60;61.96;98936.75;4391538;32;34050;-86
2023/07/22 06:23:45;;;;;;;8.60;4.72;;;;;;;22.97;60.72;98940.56;4391291;32;34522;-83
2023/07/22 06:26:12;;;;;;;8.57;4.75;;;;;;;22.85;61.96;98939.28;4391222;32;34850;-84
2023/07/22 06:28:39;;;;;;;9.43;4.85;;;;;;;23.33;60.75;98937.28;4391038;32;34169;-84
2023/07/22 06:31:07;;;;;;;7.28;4.90;;;;;;;23.12;61.67;98945.22;4391226;32;34130;-85
2023/07/22 06:33:36;;;;;;;11.00;4.57;;;;;;;23.62;59.40;98938.69;4390069;32;34479;-83
2023/07/22 06:36:03;;;;;;;7.95;4.28;;;;;;;23.71;58.35;98939.16;4391349;32;33793;-83
2023/07/22 06:38:31;;;;;;;8.30;4.50;;;;;;;23.90;58.45;98943.63;4391100;32;34266;-84
2023/07/22 06:40:59;;;;;;;10.20;4.68;;;;;;;23.66;58.30;98946.44;4377109;32;34581;-83
2023/07/22 06:43:26;;;;;;;9.07;4.68;;;;;;;23.20;58.84;98951.06;4390437;32;34321;-84
2023/07/22 06:45:54;;;;;;;7.93;4.20;;;;;;;23.46;57.12;98955.22;4390996;32;33637;-84
2023/07/22 06:48:22;;;;;;;7.75;3.85;;;;;;;23.38;59.36;98953.84;4390841;32;34016;-84
2023/07/22 06:50:49;;;;;;;10.20;4.03;;;;;;;23.44;58.82;98943.84;4390940;32;35096;-82
2023/07/22 06:53:17;;;;;;;9.48;4.05;;;;;;;23.64;58.97;98948.28;4390904;32;34328;-83
2023/07/22 06:55:52;;;;;;;8.25;4.50;;;;;;;24.06;58.05;98954.41;4390724;32;33975;-84
2023/07/22 06:58:19;;;;;;;6.35;3.87;;;;;;;23.79;57.94;98955.59;4391115;32;34151;-85
2023/07/22 07:00:47;;;;;;;10.20;4.75;;;;;;;23.82;57.51;98946.63;4391084;32;34427;-85
2023/07/22 07:03:14;;;;;;;8.45;4.82;;;;;;;23.84;58.90;98954.50;4377089;32;33630;-83
2023/07/22 07:05:42;;;;;;;9.18;4.47;;;;;;;23.45;58.34;98963.22;4391128;32;33185;-84
2023/07/22 07:08:12;;;;;;;6.95;3.80;;;;;;;23.60;57.58;98962.59;4376890;32;32747;-86
2023/07/22 07:10:40;;;;;;;5.97;3.62;;;;;;;23.83;57.88;98964.25;4390643;32;33829;-85
2023/07/22 07:13:09;;;;;;;7.57;3.60;;;;;;;23.83;56.21;98968.66;4390827;32;34553;-85
2023/07/22 07:15:36;;;;;;;8.00;4.47;;;;;;;23.57;57.48;98962.72;4390672;32;33958;-83
2023/07/22 07:18:04;;;;;;;7.20;4.22;;;;;;;23.41;57.59;98973.09;4390808;32;34743;-90
2023/07/22 07:20:32;;;;;;;6.70;3.50;;;;;;;23.37;56.29;98973.28;4377301;32;34355;-84
2023/07/22 07:23:00;;;;;;;6.57;3.55;;;;;;;24.08;56.46;98976.38;4390517;32;33059;-88
2023/07/22 07:25:27;;;;;;;8.77;3.70;;;;;;;23.93;57.73;98980.56;4376967;32;32485;-87
2023/07/22 07:27:55;;;;;;;6.75;3.70;;;;;;;24.40;56.08;98977.59;4390860;32;34231;-85
2023/07/22 07:30:22;;;;;;;6.30;3.80;;;;;;;24.40;56.97;98986.38;4389712;32;33998;-84
2023/07/22 07:32:50;;;;;;;7.93;4.15;;;;;;;24.32;55.33;98993.81;4375983;32;34061;-84
2023/07/22 07:35:18;;;;;;;8.23;4.03;;;;;;;24.84;53.04;98990.50;4390791;32;33809;-84
2023/07/22 07:37:45;;;;;;;9.50;3.97;;;;;;;24.52;54.06;98998.22;4390783;32;34046;-85
2023/07/22 07:40:12;;;;;;;7.93;4.18;;;;;;;24.79;53.94;99013.75;4376821;32;34207;-85
2023/07/22 07:42:40;;;;;;;7.22;3.58;;;;;;;24.23;54.05;99010.09;4390474;32;33560;-87
2023/07/22 07:45:08;;;;;;;6.50;3.80;;;;;;;24.21;53.28;99017.28;4376264;32;33925;-85
2023/07/22 07:47:36;;;;;;;6.85;3.80;;;;;;;24.55;53.41;99031.63;4390687;32;33753;-84
2023/07/22 07:50:04;;;;;;;9.43;3.55;;;;;;;24.16;54.27;99020.09;4390488;32;34602;-89
2023/07/22 07:52:31;;;;;;;6.18;3.60;;;;;;;24.05;53.27;99022.38;4361738;32;33905;-87
2023/07/22 07:54:59;;;;;;;7.32;3.80;;;;;;;24.64;52.75;99021.47;4375564;32;34737;-86
2023/07/22 07:57:27;;;;;;;5.25;2.97;;;;;;;25.14;52.96;99022.66;4375757;32;35307;-89
2023/07/22 07:59:54;;;;;;;9.45;3.65;;;;;;;24.81;51.38;99022.47;4363109;32;34183;-85
2023/07/22 08:02:22;;;;;;;6.60;3.92;;;;;;;24.79;52.24;99027.00;4390649;32;33379;-85
2023/07/22 08:04:49;;;;;;;5.82;3.53;;;;;;;24.68;52.16;99020.41;4376888;32;34222;-85
2023/07/22 08:07:17;;;;;;;7.53;3.50;;;;;;;24.83;52.17;99026.78;4390694;32;34232;-86
2023/07/22 08:09:49;;;;;;;6.12;3.10;;;;;;;24.84;52.17;99032.94;4390455;32;34325;-86
2023/07/22 08:12:16;;;;;;;7.47;3.58;;;;;;;25.02;52.40;99032.03;4377172;32;33993;-89
2023/07/22 08:14:44;;;;;;;6.37;3.37;;;;;;;25.05;50.93;99031.06;4376874;32;34668;-88
2023/07/22 08:17:12;;;;;;;6.55;3.30;;;;;;;24.90;51.07;99043.25;4390634;32;33630;-86
2023/07/22 08:19:39;;;;;;;7.35;3.80;;;;;;;24.79;51.20;99040.25;4390667;32;35038;-86
2023/07/22 08:22:07;;;;;;;5.62;3.10;;;;;;;25.54;50.84;99053.41;4390250;32;33643;-91
2023/07/22 08:24:34;;;;;;;6.10;3.40;;;;;;;24.80;50.31;99055.22;4390106;32;33833;-87
2023/07/22 08:27:02;;;;;;;7.37;3.65;;;;;;;25.09;51.75;99069.75;4390392;32;34652;-88
2023/07/22 08:29:30;;;;;;;5.32;2.70;;;;;;;25.34;50.99;99064.13;4388663;32;34871;-86
2023/07/22 08:31:57;;;;;;;5.15;3.30;;;;;;;25.35;49.36;99076.47;4390331;32;33387;-91
2023/07/22 08:34:26;;;;;;;6.97;3.53;;;;;;;24.89;49.55;99083.94;4390657;32;34866;-89
2023/07/22 08:36:53;;;;;;;6.70;2.62;;;;;;;25.13;48.23;99087.28;4389952;32;34218;-85
2023/07/22 08:39:21;;;;;;;6.07;2.75;;;;;;;25.20;49.99;99089.56;4389763;32;34678;-92
2023/07/22 08:41:52;;;;;;;4.80;2.70;;;;;;;25.50;49.05;99094.31;4376392;32;33779;-85
2023/07/22 08:44:20;;;;;;;8.27;3.00;;;;;;;25.38;47.29;99092.22;4390365;32;33634;-86
2023/07/22 08:46:55;;;;;;;5.00;3.03;;;;;;;25.52;48.15;99092.41;4376927;32;34005;-86
2023/07/22 08:49:23;;;;;;;4.65;2.70;;;;;;;25.77;47.27;99093.87;4389517;32;34809;-86
2023/07/22 08:51:51;;;;;;;5.40;3.30;;;;;;;25.94;47.24;99091.22;4388466;32;33817;-87
2023/07/22 08:54:20;;;;;;;6.22;3.53;;;;;;;25.61;48.66;99094.63;4376334;32;33702;-86
2023/07/22 08:56:47;;;;;;;6.40;2.95;;;;;;;25.75;48.29;99087.75;4376863;32;34917;-85
2023/07/22 08:59:15;;;;;;;6.45;3.28;;;;;;;26.09;47.38;99095.75;4390552;32;34082;-85
2023/07/22 09:01:43;;;;;;;4.65;2.65;;;;;;;26.17;49.37;99093.53;4391977;32;34591;-85
2023/07/22 09:04:10;;;;;;;6.07;2.85;;;;;;;25.94;46.08;99099.19;4378279;32;33798;-91
2023/07/22 09:06:38;;;;;;;5.32;2.70;;;;;;;26.02;47.90;99101.44;4390268;32;34155;-86
2023/07/22 09:09:08;;;;;;;7.12;3.25;;;;;;;26.10;47.18;99100.13;4390890;32;34226;-87
2023/07/22 09:11:35;;;;;;;6.32;2.90;;;;;;;26.16;46.29;99110.44;4377766;32;33345;-86
2023/07/22 09:14:06;;;;;;;6.12;2.53;;;;;;;26.26;45.54;99105.50;4391884;32;34396;-86
2023/07/22 09:16:36;;;;;;;5.80;3.08;;;;;;;26.39;46.50;99113.69;4390992;32;34266;-86
2023/07/22 09:19:05;;;;;;;5.57;2.58;;;;;;;26.40;46.92;99104.75;4391382;32;33924;-87
2023/07/22 09:21:35;;;;;;;7.32;2.58;;;;;;;26.44;46.80;99107.19;4392013;32;33317;-86
2023/07/22 09:24:23;;;;;;;10.32;3.10;;;;;;;26.47;47.85;99103.53;4392057;32;34081;-90
2023/07/22 09:26:51;;;;;;;6.28;3.00;;;;;;;26.16;47.62;99099.81;4392110;32;34581;-86
2023/07/22 09:29:35;;;;;;;7.10;3.08;;;;;;;26.00;47.31;99106.84;4391609;32;34032;-85
2023/07/22 09:32:03;;;;;;;5.00;2.40;;;;;;;26.40;46.58;99104.75;4378522;32;33314;-86
2023/07/22 09:34:31;;;;;;;4.72;2.50;;;;;;;26.58;46.85;99110.94;4378118;32;33876;-86
2023/07/22 09:37:00;;;;;;;5.95;2.72;;;;;;;26.16;46.59;99107.78;4377945;32;32536;-86
2023/07/22 09:39:27;;;;;;;4.28;2.12;;;;;;;26.77;44.57;99106.34;4377703;32;35005;-86
2023/07/22 09:41:55;;;;;;;5.65;2.47;;;;;;;26.96;44.90;99103.53;4378364;32;33191;-88
2023/07/22 09:44:23;;;;;;;6.72;2.10;;;;;;;26.45;45.39;99102.75;4391758;32;33919;-86
2023/07/22 09:46:50;;;;;;;5.20;2.42;;;;;;;26.67;45.00;99106.00;4378055;32;33802;-87
2023/07/22 09:49:18;;;;;;;7.37;2.40;;;;;;;26.63;44.96;99099.13;4390286;32;33746;-87
2023/07/22 09:51:46;;;;;;;6.72;2.55;;;;;;;27.01;44.28;99085.53;4390631;32;33789;-94
2023/07/22 09:54:30;;;;;;;4.10;2.28;;;;;;;26.84;45.53;99098.88;4379777;32;34012;-90
2023/07/22 09:56:58;;;;;;;4.12;2.30;;;;;;;26.83;46.05;99102.50;4391654;32;34990;-89
2023/07/22 09:59:28;;;;;;;5.65;2.28;;;;;;;26.77;43.88;99097.50;4391807;32;34239;-89
2023/07/22 10:01:58;;;;;;;4.75;2.60;;;;;;;27.11;43.66;99105.38;4391550;32;33366;-88
2023/07/22 10:04:28;;;;;;;4.82;2.05;;;;;;;26.99;43.52;99100.69;4390151;32;33936;-86
2023/07/22 10:06:56;;;;;;;3.78;2.20;;;;;;;27.18;41.67;99092.56;4377522;32;32710;-87
2023/07/22 10:09:26;;;;;;;6.60;1.92;;;;;;;26.93;43.55;99103.69;4389992;32;34041;-88
2023/07/22 10:12:00;;;;;;;5.07;1.83;;;;;;;27.12;41.75;99092.91;4367414;32;34525;-87
2023/07/22 10:14:27;;;;;;;4.70;1.90;;;;;;;26.70;41.40;99104.94;4390469;32;34809;-87
2023/07/22 10:16:59;;;;;;;5.40;1.85;;;;;;;26.92;42.86;99110.81;4378131;32;33793;-87
2023/07/22 10:19:28;;;;;;;4.50;1.92;;;;;;;26.95;41.71;99099.16;4390213;32;33656;-95
2023/07/22 10:21:55;;;;;;;4.00;1.50;;;;;;;27.60;41.12;99107.88;4362677;32;33589;-89
2023/07/22 10:24:23;;;;;;;5.28;2.10;;;;;;;27.01;39.18;99112.13;4376493;32;33805;-87
2023/07/22 10:26:52;;;;;;;4.57;1.90;;;;;;;27.40;39.36;99103.72;4376478;32;34387;-87
2023/07/22 10:29:21;;;;;;;6.05;1.92;;;;;;;27.62;38.48;99102.50;4375786;32;34142;-87
2023/07/22 10:31:52;;;;;;;4.85;1.70;;;;;;;27.70;39.50;99110.03;4377706;32;33792;-89
2023/07/22 10:34:21;;;;;;;6.20;2.10;;;;;;;27.37;38.88;99105.69;4377816;32;33176;-87
2023/07/22 10:36:49;;;;;;;4.37;1.90;;;;;;;27.52;40.63;99107.47;4377785;32;34285;-90
2023/07/22 10:39:28;;;;;;;4.82;1.83;;;;;;;27.54;38.57;99112.69;4390006;32;33717;-87
2023/07/22 10:42:04;;;;;;;4.72;1.70;;;;;;;27.80;39.15;99111.22;4377741;32;33759;-92
2023/07/22 10:44:38;;;;;;;3.33;1.50;;;;;;;27.32;38.71;99113.09;4391406;32;34023;-91
2023/07/22 10:47:07;;;;;;;6.85;2.10;;;;;;;27.26;40.24;99092.16;4391553;32;34338;-94
2023/07/22 10:49:47;;;;;;;4.35;1.73;;;;;;;27.55;37.89;99101.97;4377618;32;34186;-86
2023/07/22 10:52:38;;;;;;;4.10;1.55;;;;;;;27.31;38.30;99096.25;4391447;32;33962;-90
2023/07/22 10:55:14;;;;;;;6.30;1.70;;;;;;;27.48;38.07;99089.97;4377701;32;33786;-88
2023/07/22 10:57:54;;;;;;;6.40;1.83;;;;;;;27.39;38.50;99091.38;4390652;32;34227;-87
2023/07/22 11:00:21;;;;;;;4.62;1.73;;;;;;;27.53;41.12;99092.34;4377782;32;34330;-86
2023/07/22 11:03:09;;;;;;;4.57;1.77;;;;;;;27.75;38.42;99086.66;4391376;32;34199;-86
2023/07/22 11:05:52;;;;;;;4.25;1.52;;;;;;;27.82;39.14;99086.22;4377902;32;33848;-89
2023/07/22 11:08:37;;;;;;;3.97;1.85;;;;;;;27.60;37.61;99083.06;4377709;32;32851;-85
2023/07/22 11:11:05;;;;;;;4.07;1.95;;;;;;;27.39;36.65;99085.19;4391034;32;33418;-86
2023/07/22 11:13:40;;;;;;;4.75;1.92;;;;;;;27.27;38.69;99083.19;4390938;32;34582;-88
2023/07/22 11:16:12;;;;;;;4.50;1.95;;;;;;;27.19;38.20;99094.28;4390062;32;33655;-88
2023/07/22 11:18:42;;;;;;;5.22;1.70;;;;;;;27.09;38.42;99077.09;4376674;32;35071;-93
2023/07/22 11:21:11;;;;;;;4.00;1.60;;;;;;;27.14;37.04;99088.38;4377879;32;33602;-87
2023/07/22 11:23:38;;;;;;;4.15;1.50;;;;;;;27.55;36.88;99083.34;4391049;32;33713;-86
2023/07/22 11:26:06;;;;;;;6.90;1.95;;;;;;;26.95;37.95;99092.97;4390649;32;32708;-86
2023/07/22 11:28:33;;;;;;;5.57;2.05;;;;;;;27.49;37.95;99082.84;4389607;32;33787;-86
2023/07/22 11:31:01;;;;;;;11.52;4.40;;;;;;;27.70;38.03;99073.59;4389511;32;34644;-87
2023/07/22 11:33:38;;;;;;;6.72;2.05;;;;;;;27.31;38.35;99077.59;4391176;32;34266;-90
2023/07/22 11:36:06;;;;;;;4.53;1.60;;;;;;;26.83;38.41;99076.75;4389618;32;34457;-86
2023/07/22 11:38:34;;;;;;;8.13;2.03;;;;;;;27.26;38.28;99078.84;4390959;32;33913;-86